createdAt,value
2023-01-23T00:02:22.695Z,102772.97
2023-01-23T00:04:50.359Z,102771.31
2023-01-23T00:07:16.954Z,102772.31
2023-01-23T00:09:43.624Z,102774.16
2023-01-23T00:12:10.109Z,102769.81
2023-01-23T00:14:36.735Z,102768.13
2023-01-23T00:17:03.262Z,102773.66
2023-01-23T00:19:30.718Z,102771.13
2023-01-23T00:21:57.240Z,102776.66
2023-01-23T00:24:23.639Z,102775.81
2023-01-23T00:26:50.189Z,102783.84
2023-01-23T00:29:17.036Z,102793.91
2023-01-23T00:31:43.962Z,102785.03
2023-01-23T00:34:10.577Z,102787.06
2023-01-23T00:36:36.978Z,102784.38
2023-01-23T00:39:03.316Z,102795.25
2023-01-23T00:41:30.143Z,102784.53
2023-01-23T00:43:57.091Z,102793.59
2023-01-23T00:46:23.999Z,102794.56
2023-01-23T00:48:50.492Z,102789.41
2023-01-23T00:51:16.947Z,102800.13
2023-01-23T00:53:43.758Z,102802.09
2023-01-23T00:56:10.140Z,102803.97
2023-01-23T00:58:36.536Z,102804.13
2023-01-23T01:01:03.299Z,102805.09
2023-01-23T01:03:30.345Z,102808.78
2023-01-23T01:05:57.162Z,102807.13
2023-01-23T01:08:23.552Z,102809.13
2023-01-23T01:10:50.501Z,102805.63
2023-01-23T01:13:16.995Z,102810.13
2023-01-23T01:15:43.883Z,102814.66
2023-01-23T01:18:10.688Z,102817.50
2023-01-23T01:20:37.141Z,102823.88
2023-01-23T01:23:03.942Z,102824.84
2023-01-23T01:25:30.517Z,102828.53
2023-01-23T01:27:57.359Z,102819.66
2023-01-23T01:30:23.794Z,102817.97
2023-01-23T01:32:50.445Z,102819.00
2023-01-23T01:35:16.780Z,102825.53
2023-01-23T01:37:43.709Z,102820.16
2023-01-23T01:40:10.085Z,102819.31
2023-01-23T01:42:36.521Z,102828.34
2023-01-23T01:45:02.910Z,102824.66
2023-01-23T01:47:29.718Z,102834.56
2023-01-23T01:49:56.528Z,102827.50
2023-01-23T01:52:23.113Z,102827.69
2023-01-23T01:54:49.870Z,102833.06
2023-01-23T01:57:16.287Z,102826.00
2023-01-23T01:59:42.972Z,102824.47
2023-01-23T02:02:09.759Z,102834.38
2023-01-23T02:04:37.132Z,102838.88
2023-01-23T02:07:03.549Z,102838.03
2023-01-23T02:09:30.882Z,102835.53
2023-01-23T02:11:57.387Z,102847.09
2023-01-23T02:14:24.263Z,102840.22
2023-01-23T02:16:50.766Z,102854.47
2023-01-23T02:19:17.542Z,102850.25
2023-01-23T02:21:44.137Z,102852.25
2023-01-23T02:24:10.559Z,102859.28
2023-01-23T02:26:37.059Z,102855.09
2023-01-23T02:29:03.473Z,102853.09
2023-01-23T02:31:29.974Z,102857.75
2023-01-23T02:33:56.794Z,102853.41
2023-01-23T02:36:23.429Z,102861.59
2023-01-23T02:38:49.872Z,102867.81
2023-01-23T02:41:16.280Z,102866.16
2023-01-23T02:43:42.893Z,102869.78
2023-01-23T02:46:09.325Z,102873.47
2023-01-23T02:48:35.818Z,102870.13
2023-01-23T02:51:02.265Z,102864.78
2023-01-23T02:53:28.953Z,102860.59
2023-01-23T02:55:55.725Z,102864.25
2023-01-23T02:58:22.186Z,102872.28
2023-01-23T03:00:48.815Z,102865.25
2023-01-23T03:03:15.415Z,102866.25
2023-01-23T03:05:41.926Z,102863.72
2023-01-23T03:08:08.332Z,102864.59
2023-01-23T03:10:34.878Z,102863.88
2023-01-23T03:13:01.861Z,102871.91
2023-01-23T03:15:29.265Z,102865.72
2023-01-23T03:17:55.723Z,102873.09
2023-01-23T03:20:22.619Z,102869.56
2023-01-23T03:22:49.635Z,102878.59
2023-01-23T03:25:16.351Z,102879.44
2023-01-23T03:27:43.108Z,102888.47
2023-01-23T03:30:10.082Z,102888.63
2023-01-23T03:32:37.049Z,102887.78
2023-01-23T03:35:03.623Z,102889.47
2023-01-23T03:37:30.247Z,102887.94
2023-01-23T03:39:57.083Z,102898.00
2023-01-23T03:42:23.475Z,102890.94
2023-01-23T03:44:49.864Z,102895.63
2023-01-23T03:47:16.287Z,102899.16
2023-01-23T03:49:42.978Z,102900.97
2023-01-23T03:52:09.474Z,102904.50
2023-01-23T03:54:35.935Z,102909.16
2023-01-23T03:57:02.386Z,102902.97
2023-01-23T03:59:29.122Z,102911.16
2023-01-23T04:01:55.595Z,102916.53
2023-01-23T04:04:22.179Z,102917.50
2023-01-23T04:06:49.035Z,102914.81
2023-01-23T04:09:15.470Z,102915.81
2023-01-23T04:11:41.951Z,102916.69
2023-01-23T04:14:08.483Z,102919.66
2023-01-23T04:16:35.597Z,102912.47
2023-01-23T04:19:02.287Z,102915.31
2023-01-23T04:21:28.713Z,102908.28
2023-01-23T04:23:55.246Z,102912.13
2023-01-23T04:26:21.650Z,102907.59
2023-01-23T04:28:48.511Z,102915.63
2023-01-23T04:31:15.077Z,102918.44
2023-01-23T04:33:41.889Z,102917.63
2023-01-23T04:36:08.701Z,102914.22
2023-01-23T04:38:35.172Z,102916.06
2023-01-23T04:41:01.732Z,102923.25
2023-01-23T04:43:28.166Z,102917.75
2023-01-23T04:45:54.562Z,102918.91
2023-01-23T04:48:21.599Z,102913.69
2023-01-23T04:50:49.049Z,102920.06
2023-01-23T04:53:15.472Z,102918.19
2023-01-23T04:55:42.005Z,102925.41
2023-01-23T04:58:08.641Z,102927.22
2023-01-23T05:00:35.145Z,102927.38
2023-01-23T05:03:01.672Z,102944.28
2023-01-23T05:05:28.420Z,102938.09
2023-01-23T05:07:55.291Z,102935.41
2023-01-23T05:10:22.152Z,102937.28
2023-01-23T05:12:49.192Z,102941.78
2023-01-23T05:15:15.569Z,102941.06
2023-01-23T05:17:42.150Z,102944.75
2023-01-23T05:20:08.727Z,102948.44
2023-01-23T05:22:35.685Z,102942.22
2023-01-23T05:25:02.227Z,102945.91
2023-01-23T05:27:28.739Z,102952.09
2023-01-23T05:29:55.486Z,102951.25
2023-01-23T05:32:21.918Z,102947.06
2023-01-23T05:34:48.896Z,102953.25
2023-01-23T05:37:15.273Z,102954.09
2023-01-23T05:39:41.807Z,102958.63
2023-01-23T05:42:08.473Z,102964.25
2023-01-23T05:44:35.343Z,102976.50
2023-01-23T05:47:01.983Z,102976.63
2023-01-23T05:49:28.599Z,102978.50
2023-01-23T05:51:55.491Z,102976.78
2023-01-23T05:54:22.216Z,102983.00
2023-01-23T05:56:48.901Z,102985.69
2023-01-23T05:59:15.457Z,102980.63
2023-01-23T06:01:42.788Z,102985.16
2023-01-23T06:04:09.739Z,102981.63
2023-01-23T06:06:36.361Z,102981.78
2023-01-23T06:09:02.783Z,102988.78
2023-01-23T06:11:29.469Z,102995.16
2023-01-23T06:13:55.934Z,102993.47
2023-01-23T06:16:22.426Z,102991.81
2023-01-23T06:18:48.853Z,102991.81
2023-01-23T06:21:15.344Z,102995.44
2023-01-23T06:23:41.918Z,103003.47
2023-01-23T06:26:08.621Z,103005.47
2023-01-23T06:28:35.446Z,103008.16
2023-01-23T06:31:02.423Z,103013.50
2023-01-23T06:33:28.985Z,103007.00
2023-01-23T06:35:55.473Z,103001.13
2023-01-23T06:38:21.919Z,103006.63
2023-01-23T06:40:48.305Z,103013.66
2023-01-23T06:43:14.892Z,103014.50
2023-01-23T06:45:41.662Z,103025.22
2023-01-23T06:48:08.790Z,103026.22
2023-01-23T06:50:35.258Z,103021.00
2023-01-23T06:53:01.675Z,103027.31
2023-01-23T06:55:28.159Z,103029.19
2023-01-23T06:57:54.874Z,103021.97
2023-01-23T07:00:21.684Z,103035.53
2023-01-23T07:02:48.524Z,103023.13
2023-01-23T07:05:15.348Z,103021.31
2023-01-23T07:07:41.801Z,103022.16
2023-01-23T07:10:08.357Z,103018.63
2023-01-23T07:12:35.010Z,103030.31
2023-01-23T07:15:01.604Z,103034.69
2023-01-23T07:17:28.116Z,103034.81
2023-01-23T07:19:55.166Z,103026.78
2023-01-23T07:22:21.566Z,103045.66
2023-01-23T07:24:47.989Z,103043.84
2023-01-23T07:27:14.435Z,103044.84
2023-01-23T07:29:40.772Z,103043.16
2023-01-23T07:32:08.921Z,103038.78
2023-01-23T07:34:37.470Z,103052.88
2023-01-23T07:37:03.909Z,103052.03
2023-01-23T07:39:30.757Z,103046.66
2023-01-23T07:41:57.450Z,103044.16
2023-01-23T07:44:23.913Z,103047.97
2023-01-23T07:46:50.301Z,103046.28
2023-01-23T07:49:17.072Z,103046.00
2023-01-23T07:51:43.437Z,103055.00
2023-01-23T07:54:10.076Z,103051.63
2023-01-23T07:56:36.691Z,103069.38
2023-01-23T07:59:03.373Z,103056.13
2023-01-23T08:01:30.026Z,103061.63
2023-01-23T08:03:56.577Z,103059.97
2023-01-23T08:06:22.919Z,103072.50
2023-01-23T08:08:49.606Z,103076.16
2023-01-23T08:11:16.329Z,103074.19
2023-01-23T08:13:42.943Z,103076.16
2023-01-23T08:16:11.420Z,103076.00
2023-01-23T08:18:39.180Z,103076.16
2023-01-23T08:21:05.895Z,103082.66
2023-01-23T08:23:32.245Z,103080.97
2023-01-23T08:25:58.680Z,103082.66
2023-01-23T08:28:25.590Z,103082.78
2023-01-23T08:30:52.120Z,103090.66
2023-01-23T08:33:18.610Z,103094.34
2023-01-23T08:35:45.836Z,103090.97
2023-01-23T08:38:12.415Z,103099.84
2023-01-23T08:40:39.144Z,103108.72
2023-01-23T08:43:05.918Z,103104.19
2023-01-23T08:45:32.533Z,103113.34
2023-01-23T08:47:59.306Z,103113.34
2023-01-23T08:50:25.739Z,103110.81
2023-01-23T08:52:52.568Z,103121.53
2023-01-23T08:55:18.976Z,103122.38
2023-01-23T08:57:45.481Z,103129.88
2023-01-23T09:00:12.048Z,103133.50
2023-01-23T09:02:38.429Z,103129.16
2023-01-23T09:05:04.793Z,103131.53
2023-01-23T09:07:31.707Z,103139.56
2023-01-23T09:09:58.373Z,103133.50
2023-01-23T09:12:24.986Z,103133.50
2023-01-23T09:14:51.502Z,103136.88
2023-01-23T09:17:18.142Z,103138.03
2023-01-23T09:19:44.846Z,103131.81
2023-01-23T09:22:11.411Z,103140.84
2023-01-23T09:24:37.787Z,103139.16
2023-01-23T09:27:04.489Z,103148.88
2023-01-23T09:29:31.581Z,103150.00
2023-01-23T09:31:58.339Z,103142.81
2023-01-23T09:34:25.118Z,103148.16
2023-01-23T09:36:51.761Z,103146.47
2023-01-23T09:39:18.433Z,103150.16
2023-01-23T09:41:45.341Z,103153.81
2023-01-23T09:44:11.951Z,103150.28
2023-01-23T09:46:39.332Z,103150.44
2023-01-23T09:49:07.002Z,103159.44
2023-01-23T09:51:33.410Z,103157.78
2023-01-23T09:53:59.974Z,103159.72
2023-01-23T09:56:26.384Z,103156.09
2023-01-23T09:58:52.908Z,103156.09
2023-01-23T10:01:19.694Z,103159.72
2023-01-23T10:03:46.968Z,103162.41
2023-01-23T10:06:13.586Z,103151.72
2023-01-23T10:08:40.270Z,103158.91
2023-01-23T10:11:06.990Z,103158.78
2023-01-23T10:13:33.474Z,103159.91
2023-01-23T10:16:02.216Z,103155.66
2023-01-23T10:18:29.004Z,103155.66
2023-01-23T10:20:55.762Z,103154.84
2023-01-23T10:23:22.153Z,103148.63
2023-01-23T10:25:48.600Z,103153.59
2023-01-23T10:28:15.183Z,103144.16
2023-01-23T10:30:42.030Z,103148.66
2023-01-23T10:33:08.671Z,103151.50
2023-01-23T10:35:35.251Z,103148.84
2023-01-23T10:38:01.688Z,103154.19
2023-01-23T10:40:28.638Z,103145.44
2023-01-23T10:42:55.490Z,103149.94
2023-01-23T10:45:22.115Z,103153.47
2023-01-23T10:47:54.693Z,103151.78
2023-01-23T10:50:21.797Z,103156.41
2023-01-23T10:52:48.251Z,103160.09
2023-01-23T10:55:14.965Z,103146.72
2023-01-23T10:57:43.853Z,103150.38
2023-01-23T11:00:10.557Z,103148.72
2023-01-23T11:02:37.431Z,103163.75
2023-01-23T11:05:03.909Z,103155.00
2023-01-23T11:07:30.349Z,103159.41
2023-01-23T11:09:56.888Z,103152.34
2023-01-23T11:12:23.670Z,103160.38
2023-01-23T11:14:50.102Z,103162.22
2023-01-23T11:17:16.706Z,103158.53
2023-01-23T11:19:43.844Z,103156.72
2023-01-23T11:22:10.717Z,103162.06
2023-01-23T11:24:40.774Z,103163.75
2023-01-23T11:27:12.244Z,103161.94
2023-01-23T11:29:38.851Z,103152.91
2023-01-23T11:32:05.433Z,103156.59
2023-01-23T11:34:32.271Z,103157.28
2023-01-23T11:36:58.603Z,103152.06
2023-01-23T11:39:25.595Z,103146.56
2023-01-23T11:41:52.580Z,103144.03
2023-01-23T11:44:19.320Z,103143.06
2023-01-23T11:46:46.751Z,103144.03
2023-01-23T11:49:13.182Z,103143.22
2023-01-23T11:51:39.655Z,103143.06
2023-01-23T11:54:06.179Z,103140.38
2023-01-23T11:56:32.599Z,103132.53
2023-01-23T11:58:59.169Z,103130.69
2023-01-23T12:01:25.711Z,103130.69
2023-01-23T12:03:52.252Z,103128.00
2023-01-23T12:09:05.311Z,103117.47
2023-01-23T12:11:31.707Z,103115.78
2023-01-23T12:13:58.371Z,103118.31
2023-01-23T12:16:24.882Z,103110.28
2023-01-23T12:18:51.416Z,103105.94
2023-01-23T12:21:17.967Z,103106.09
2023-01-23T12:23:44.569Z,103103.28
2023-01-23T12:26:11.271Z,103109.56
2023-01-23T12:28:37.841Z,103116.91
2023-01-23T12:31:05.682Z,103122.13
2023-01-23T12:33:32.363Z,103119.44
2023-01-23T12:35:59.097Z,103119.44
2023-01-23T12:38:25.658Z,103116.06
2023-01-23T12:40:52.102Z,103119.03
2023-01-23T12:43:18.772Z,103118.72
2023-01-23T12:45:45.218Z,103117.06
2023-01-23T12:48:11.764Z,103123.25
2023-01-23T12:50:38.460Z,103124.25
2023-01-23T12:53:05.114Z,103120.72
2023-01-23T12:55:31.860Z,103122.41
2023-01-23T12:58:08.114Z,103119.03
2023-01-23T13:00:35.330Z,103110.31
2023-01-23T13:03:02.389Z,103109.50
2023-01-23T13:05:28.999Z,103104.28
2023-01-23T13:07:55.716Z,103107.78
2023-01-23T13:10:22.798Z,103107.78
2023-01-23T13:12:49.464Z,103114.13
2023-01-23T13:15:17.225Z,103113.44
2023-01-23T13:17:45.444Z,103114.25
2023-01-23T13:20:11.969Z,103116.94
2023-01-23T13:22:38.603Z,103122.13
2023-01-23T13:25:05.605Z,103125.09
2023-01-23T13:27:32.089Z,103123.41
2023-01-23T13:29:58.517Z,103128.75
2023-01-23T13:32:25.269Z,103120.75
2023-01-23T13:34:51.785Z,103120.47
2023-01-23T13:37:18.306Z,103114.84
2023-01-23T13:39:45.543Z,103111.16
2023-01-23T13:42:12.118Z,103118.72
2023-01-23T13:44:42.059Z,103117.59
2023-01-23T14:21:57.708Z,103115.34
2023-01-23T14:24:24.530Z,103114.38
2023-01-23T14:26:51.104Z,103118.16
2023-01-23T14:29:17.799Z,103110.00
2023-01-23T14:31:44.801Z,103114.66
2023-01-23T14:34:13.281Z,103114.78
2023-01-23T14:36:43.182Z,103119.00
2023-01-23T14:39:09.658Z,103121.97
2023-01-23T14:41:38.228Z,103128.88
2023-01-23T14:44:07.664Z,103128.28
2023-01-23T14:46:34.115Z,103130.81
2023-01-23T14:49:00.761Z,103143.22
2023-01-23T14:51:27.181Z,103144.50
2023-01-23T14:53:53.729Z,103139.28
2023-01-23T14:56:20.142Z,103136.63
2023-01-23T14:58:46.986Z,103140.13
2023-01-23T15:01:13.668Z,103133.09
2023-01-23T15:03:40.048Z,103138.56
2023-01-23T15:06:06.539Z,103145.78
2023-01-23T15:08:33.259Z,103137.75
2023-01-23T15:10:59.789Z,103144.78
2023-01-23T15:13:26.136Z,103144.91
2023-01-23T15:15:52.862Z,103147.59
2023-01-23T15:18:19.383Z,103140.56
2023-01-23T15:20:46.118Z,103141.38
2023-01-23T15:23:12.570Z,103142.38
2023-01-23T15:25:39.278Z,103153.94
2023-01-23T15:28:05.639Z,103149.41
2023-01-23T15:30:32.137Z,103154.94
2023-01-23T15:32:58.534Z,103157.59
2023-01-23T15:35:25.008Z,103164.91
2023-01-23T15:37:51.446Z,103171.91
2023-01-23T15:40:17.952Z,103179.94
2023-01-23T15:42:44.446Z,103182.75
2023-01-23T15:45:10.936Z,103177.72
2023-01-23T15:47:37.345Z,103183.88
2023-01-23T15:50:03.928Z,103181.22
2023-01-23T15:52:30.513Z,103173.38
2023-01-23T15:54:57.341Z,103180.38
2023-01-23T15:57:24.075Z,103183.06
2023-01-23T15:59:50.726Z,103185.88
2023-01-23T16:02:29.610Z,103184.19
2023-01-23T16:04:57.204Z,103180.53
2023-01-23T16:07:23.575Z,103186.16
2023-01-23T16:09:50.267Z,103189.66
2023-01-23T16:12:16.665Z,103185.00
2023-01-23T16:14:43.212Z,103195.84
2023-01-23T16:17:16.766Z,103188.81
2023-01-23T16:19:43.486Z,103193.34
2023-01-23T16:22:09.943Z,103204.16
2023-01-23T16:24:36.743Z,103205.97
2023-01-23T16:27:03.282Z,103206.84
2023-01-23T16:29:30.288Z,103209.78
2023-01-23T16:31:56.939Z,103210.63
2023-01-23T16:34:23.726Z,103211.31
2023-01-23T16:36:50.152Z,103202.63
2023-01-23T16:39:16.721Z,103207.09
2023-01-23T16:41:43.424Z,103210.78
2023-01-23T16:44:09.895Z,103216.66
2023-01-23T16:46:36.537Z,103207.97
2023-01-23T16:49:03.164Z,103215.00
2023-01-23T16:51:29.531Z,103215.13
2023-01-23T16:53:55.990Z,103218.66
2023-01-23T16:56:22.761Z,103220.56
2023-01-23T16:58:49.240Z,103219.63
2023-01-23T17:01:16.093Z,103220.56
2023-01-23T17:03:42.667Z,103216.13
2023-01-23T17:06:09.776Z,103223.13
2023-01-23T17:08:36.232Z,103225.81
2023-01-23T17:11:02.983Z,103232.16
2023-01-23T17:13:29.438Z,103230.44
2023-01-23T17:15:56.199Z,103227.75
2023-01-23T17:18:22.690Z,103231.41
2023-01-23T17:20:49.103Z,103233.09
2023-01-23T17:23:15.577Z,103226.19
2023-01-23T17:25:54.462Z,103235.19
2023-01-23T17:28:25.975Z,103238.72
2023-01-23T17:30:52.484Z,103236.88
2023-01-23T17:33:18.810Z,103233.50
2023-01-23T17:35:45.558Z,103231.84
2023-01-23T17:38:11.980Z,103238.16
2023-01-23T17:40:38.426Z,103234.63
2023-01-23T17:43:05.338Z,103240.84
2023-01-23T17:45:32.313Z,103240.84
2023-01-23T17:47:59.447Z,103236.59
2023-01-23T17:50:26.092Z,103235.63
2023-01-23T17:52:52.841Z,103235.63
2023-01-23T17:55:19.297Z,103229.56
2023-01-23T17:57:46.094Z,103234.91
2023-01-23T18:00:12.574Z,103228.56
2023-01-23T18:02:39.237Z,103231.13
2023-01-23T18:05:06.184Z,103235.91
2023-01-23T18:07:35.989Z,103242.25
2023-01-23T18:10:06.628Z,103238.56
2023-01-23T18:12:33.227Z,103232.50
2023-01-23T18:15:00.062Z,103238.72
2023-01-23T18:17:26.574Z,103239.44
2023-01-23T18:19:53.261Z,103234.34
2023-01-23T18:22:19.903Z,103231.69
2023-01-23T18:24:46.591Z,103230.69
2023-01-23T18:27:13.177Z,103236.91
2023-01-23T18:29:39.506Z,103237.84
2023-01-23T18:32:06.008Z,103237.03
2023-01-23T18:34:32.478Z,103233.81
2023-01-23T18:36:59.066Z,103232.81
2023-01-23T18:39:25.735Z,103239.97
2023-01-23T18:41:52.071Z,103250.53
2023-01-23T18:44:18.573Z,103241.81
2023-01-23T18:46:45.248Z,103241.09
2023-01-23T18:49:14.958Z,103240.81
2023-01-23T18:51:43.943Z,103246.44
2023-01-23T18:54:10.540Z,103244.75
2023-01-23T18:56:36.993Z,103243.91
2023-01-23T18:59:11.524Z,103242.09
2023-01-23T19:01:39.084Z,103236.75
2023-01-23T19:04:05.536Z,103240.25
2023-01-23T19:06:33.259Z,103232.53
2023-01-23T19:08:59.910Z,103235.19
2023-01-23T19:11:26.366Z,103230.69
2023-01-23T19:13:53.033Z,103226.19
2023-01-23T19:16:19.400Z,103238.69
2023-01-23T19:18:46.137Z,103243.22
2023-01-23T19:21:12.613Z,103244.16
2023-01-23T19:23:39.535Z,103241.66
2023-01-23T19:26:06.190Z,103230.81
2023-01-23T19:28:32.791Z,103231.81
2023-01-23T19:30:59.402Z,103239.00
2023-01-23T19:33:26.326Z,103230.97
2023-01-23T19:35:53.047Z,103231.81
2023-01-23T19:38:20.342Z,103236.47
2023-01-23T19:40:47.868Z,103237.16
2023-01-23T19:43:15.188Z,103232.78
2023-01-23T19:45:41.647Z,103238.28
2023-01-23T19:48:08.342Z,103233.91
2023-01-23T19:50:35.468Z,103236.59
2023-01-23T19:53:02.311Z,103234.91
2023-01-23T19:55:28.676Z,103234.91
2023-01-23T19:57:55.853Z,103239.53
2023-01-23T20:00:22.551Z,103253.59
2023-01-23T20:02:49.486Z,103238.53
2023-01-23T20:05:16.511Z,103243.88
2023-01-23T20:07:43.144Z,103242.94
2023-01-23T20:10:09.773Z,103241.22
2023-01-23T20:12:36.426Z,103250.22
2023-01-23T20:15:02.899Z,103247.69
2023-01-23T20:17:29.561Z,103253.75
2023-01-23T20:19:56.098Z,103244.88
2023-01-23T20:22:22.667Z,103238.84
2023-01-23T20:24:49.618Z,103250.34
2023-01-23T20:27:16.122Z,103249.53
2023-01-23T20:29:42.970Z,103243.31
2023-01-23T20:32:09.993Z,103245.00
2023-01-23T20:34:36.951Z,103260.22
2023-01-23T20:37:03.391Z,103262.75
2023-01-23T20:39:30.024Z,103270.16
2023-01-23T20:41:56.535Z,103267.50
2023-01-23T20:44:23.475Z,103265.81
2023-01-23T20:46:49.979Z,103267.63
2023-01-23T20:49:16.665Z,103270.28
2023-01-23T20:51:43.566Z,103275.63
2023-01-23T20:54:10.003Z,103276.50
2023-01-23T20:56:36.534Z,103276.50
2023-01-23T20:59:03.527Z,103271.16
2023-01-23T21:01:30.463Z,103278.31
2023-01-23T21:03:57.066Z,103280.16
2023-01-23T21:06:23.560Z,103281.13
2023-01-23T21:08:49.918Z,103287.44
2023-01-23T21:11:16.973Z,103271.41
2023-01-23T21:13:43.385Z,103273.41
2023-01-23T21:16:10.189Z,103272.53
2023-01-23T21:18:36.568Z,103280.41
2023-01-23T21:21:03.591Z,103281.41
2023-01-23T21:23:30.170Z,103279.72
2023-01-23T21:25:56.680Z,103276.06
2023-01-23T21:28:23.747Z,103276.06
2023-01-23T21:30:50.269Z,103282.41
2023-01-23T21:33:17.067Z,103280.69
2023-01-23T21:35:43.533Z,103270.84
2023-01-23T21:38:10.425Z,103273.66
2023-01-23T21:40:36.956Z,103278.72
2023-01-23T21:43:04.052Z,103280.69
2023-01-23T21:45:31.101Z,103275.34
2023-01-23T21:47:57.900Z,103276.34
2023-01-23T21:50:24.982Z,103282.66
2023-01-23T21:52:51.450Z,103273.66
2023-01-23T21:55:17.870Z,103273.94
2023-01-23T21:57:44.913Z,103283.50
2023-01-23T22:00:13.728Z,103278.19
2023-01-23T22:02:40.366Z,103276.59
2023-01-23T22:05:07.615Z,103281.81
2023-01-23T22:07:34.285Z,103283.66
2023-01-23T22:10:00.988Z,103274.78
2023-01-23T22:12:28.898Z,103280.00
2023-01-23T22:14:55.450Z,103280.97
2023-01-23T22:17:22.444Z,103282.66
2023-01-23T22:19:48.785Z,103270.28
2023-01-23T22:22:15.304Z,103274.78
2023-01-23T22:24:42.189Z,103277.59
2023-01-23T22:27:08.780Z,103273.22
2023-01-23T22:29:36.069Z,103273.09
2023-01-23T22:32:03.125Z,103265.09
2023-01-23T22:34:30.266Z,103267.03
2023-01-23T22:36:57.083Z,103266.22
2023-01-23T22:39:23.521Z,103265.34
2023-01-23T22:41:50.496Z,103261.81
2023-01-23T22:44:16.934Z,103263.53
2023-01-23T22:46:43.759Z,103267.91
2023-01-23T22:49:10.189Z,103260.88
2023-01-23T22:51:36.971Z,103261.00
2023-01-23T22:54:03.423Z,103267.16
2023-01-23T22:56:30.285Z,103261.00
2023-01-23T22:58:57.148Z,103262.00
2023-01-23T23:01:23.811Z,103262.94
2023-01-23T23:03:50.999Z,103262.00
2023-01-23T23:06:17.990Z,103272.81
2023-01-23T23:08:47.371Z,103269.16
2023-01-23T23:11:14.175Z,103268.28
2023-01-23T23:13:40.747Z,103268.28
2023-01-23T23:16:07.226Z,103275.47
2023-01-23T23:18:33.985Z,103278.13
2023-01-23T23:21:00.739Z,103272.94
2023-01-23T23:23:27.243Z,103279.94
2023-01-23T23:25:53.819Z,103271.94
2023-01-23T23:28:20.400Z,103269.28
2023-01-23T23:30:47.169Z,103279.81
2023-01-23T23:33:13.980Z,103285.41
2023-01-23T23:35:40.491Z,103289.66
2023-01-23T23:38:07.159Z,103281.94
2023-01-23T23:40:33.924Z,103288.94
2023-01-23T23:43:00.296Z,103286.41
2023-01-23T23:45:26.616Z,103278.41
2023-01-23T23:47:52.947Z,103280.22
2023-01-23T23:50:19.413Z,103281.22
2023-01-23T23:52:46.581Z,103286.41
2023-01-23T23:55:13.276Z,103282.06
2023-01-23T23:57:40.206Z,103278.41
